Pell Lake, Wisconsin
Current Conditions -  °F | °C
As of 4:15 AM on Sunday 26 Oct 2014 (Local Time) from KBUU Reporting Station
Clear Clear  
Wind Chill: 39°   Ceiling: Unl
Heat Index: 39°   Visibility: 10mi
Dew Point: 28°   Wind: 0mph
Humidity: 63%   Direction: NA
Pressure: 29.99"   Gusts: NA
Location:  42.54°N, 88.37°W
Report Text: KBUU 260915Z AUTO 00000KT 10SM CLR 04/M02 A2999 RMK AO2 T00411024
Loading
Personal Weather Stations






























Interactive Weather Map
Tropical Storm Tracking
New forecast layout! Learn more

10-Day Weather Forecast

Advertisements
Track Severe Weather on mobile